createdAt,value
2017-12-16T00:01:56.867Z,7.05
2017-12-16T00:04:24.290Z,5.40
2017-12-16T00:06:51.735Z,5.75
2017-12-16T00:09:19.163Z,5.30
2017-12-16T00:11:47.409Z,4.95
2017-12-16T00:14:14.866Z,5.22
2017-12-16T00:16:43.123Z,5.25
2017-12-16T00:19:10.550Z,4.68
2017-12-16T00:21:38.018Z,4.87
2017-12-16T00:24:06.204Z,4.87
2017-12-16T00:26:33.691Z,5.00
2017-12-16T00:29:02.001Z,4.53
2017-12-16T00:31:29.428Z,4.82
2017-12-16T00:33:56.861Z,3.90
2017-12-16T00:36:25.110Z,3.87
2017-12-16T00:38:52.537Z,3.90
2017-12-16T00:41:20.009Z,4.32
2017-12-16T00:43:48.214Z,3.85
2017-12-16T00:46:15.643Z,16.08
2017-12-16T00:48:43.090Z,11.05
2017-12-16T00:51:10.522Z,3.00
2017-12-16T00:53:37.956Z,4.30
2017-12-16T00:56:05.388Z,4.12
2017-12-16T00:58:32.828Z,3.90
2017-12-16T01:01:01.020Z,3.30
2017-12-16T01:03:28.473Z,4.78
2017-12-16T01:05:55.888Z,3.85
2017-12-16T01:08:23.383Z,4.00
2017-12-16T01:10:50.819Z,3.62
2017-12-16T01:13:18.245Z,4.20
2017-12-16T01:15:45.681Z,4.22
2017-12-16T01:18:13.124Z,3.40
2017-12-16T01:20:40.552Z,4.80
2017-12-16T01:23:07.989Z,4.20
2017-12-16T01:25:35.416Z,3.83
2017-12-16T01:28:02.854Z,4.65
2017-12-16T01:30:31.055Z,3.95
2017-12-16T01:32:58.472Z,5.05
2017-12-16T01:35:37.865Z,4.85
2017-12-16T01:38:18.045Z,4.57
2017-12-16T01:40:45.471Z,4.70
2017-12-16T01:43:12.896Z,5.10
2017-12-16T01:45:41.108Z,4.07
2017-12-16T01:48:08.532Z,4.90
2017-12-16T01:50:35.972Z,4.40
2017-12-16T01:53:03.404Z,4.70
2017-12-16T01:55:30.865Z,4.85
2017-12-16T01:57:58.288Z,4.60
2017-12-16T02:00:25.716Z,4.32
2017-12-16T02:02:53.920Z,4.68
2017-12-16T02:05:21.357Z,4.22
2017-12-16T02:07:48.793Z,4.25
2017-12-16T02:10:16.352Z,4.78
2017-12-16T02:12:44.543Z,4.57
2017-12-16T02:15:12.013Z,4.60
2017-12-16T02:17:39.448Z,4.22
2017-12-16T02:20:07.649Z,4.50
2017-12-16T02:22:35.079Z,4.25
2017-12-16T02:25:02.538Z,4.12
2017-12-16T02:27:29.948Z,4.53
2017-12-16T02:29:57.425Z,4.60
2017-12-16T02:32:24.844Z,4.37
2017-12-16T02:34:52.280Z,4.22
2017-12-16T02:37:19.709Z,4.65
2017-12-16T02:39:47.150Z,4.50
2017-12-16T02:42:15.349Z,4.60
2017-12-16T02:44:42.777Z,5.50
2017-12-16T02:47:10.217Z,4.57
2017-12-16T02:49:37.644Z,4.70
2017-12-16T02:52:05.084Z,4.07
2017-12-16T02:54:33.277Z,4.85
2017-12-16T02:57:00.721Z,5.40
2017-12-16T02:59:28.148Z,4.40
2017-12-16T03:01:55.586Z,5.50
2017-12-16T03:04:23.013Z,4.40
2017-12-16T03:06:51.264Z,4.30
2017-12-16T03:09:19.452Z,5.20
2017-12-16T03:11:47.576Z,4.47
2017-12-16T03:14:15.783Z,4.90
2017-12-16T03:16:43.210Z,4.45
2017-12-16T03:19:10.642Z,4.30
2017-12-16T03:21:38.068Z,5.68
2017-12-16T03:24:05.562Z,4.15
2017-12-16T03:26:32.976Z,4.10
2017-12-16T03:29:00.445Z,5.05
2017-12-16T03:31:27.875Z,4.50
2017-12-16T03:33:55.311Z,4.57
2017-12-16T03:36:22.742Z,4.37
2017-12-16T03:38:50.941Z,4.15
2017-12-16T03:41:18.368Z,4.87
2017-12-16T03:43:45.845Z,4.78
2017-12-16T03:46:13.272Z,4.47
2017-12-16T03:48:40.700Z,4.20
2017-12-16T03:51:08.136Z,4.55
2017-12-16T03:53:35.557Z,3.90
2017-12-16T03:56:02.993Z,4.40
2017-12-16T03:58:31.189Z,4.43
2017-12-16T04:00:58.632Z,4.57
2017-12-16T04:03:26.077Z,3.90
2017-12-16T04:05:53.511Z,4.18
2017-12-16T04:08:20.941Z,4.43
2017-12-16T04:10:48.376Z,3.50
2017-12-16T04:13:15.802Z,4.87
2017-12-16T04:15:44.046Z,4.43
2017-12-16T04:18:11.478Z,3.72
2017-12-16T04:20:38.944Z,3.60
2017-12-16T04:23:07.149Z,4.78
2017-12-16T04:25:34.582Z,4.03
2017-12-16T04:28:02.015Z,3.92
2017-12-16T04:30:29.436Z,4.50
2017-12-16T04:32:57.636Z,5.93
2017-12-16T04:35:25.070Z,4.22
2017-12-16T04:37:52.509Z,3.78
2017-12-16T04:40:19.951Z,4.40
2017-12-16T04:42:47.388Z,4.35
2017-12-16T04:45:14.840Z,3.90
2017-12-16T04:47:42.289Z,4.70
2017-12-16T04:50:09.723Z,4.20
2017-12-16T04:52:37.164Z,5.12
2017-12-16T04:55:04.596Z,5.32
2017-12-16T04:57:32.024Z,6.82
2017-12-16T04:59:59.526Z,6.82
2017-12-16T05:02:27.670Z,6.75
2017-12-16T05:04:55.109Z,8.93
2017-12-16T05:07:22.552Z,10.50
2017-12-16T05:09:49.993Z,9.80
2017-12-16T05:12:17.433Z,11.12
2017-12-16T05:14:44.883Z,10.73
2017-12-16T05:17:12.320Z,10.82
2017-12-16T05:19:39.769Z,10.90
2017-12-16T05:22:07.202Z,8.40
2017-12-16T05:24:34.645Z,8.63
2017-12-16T05:27:02.074Z,5.18
2017-12-16T05:29:29.516Z,4.53
2017-12-16T05:31:56.947Z,4.35
2017-12-16T05:34:24.371Z,4.32
2017-12-16T05:36:52.578Z,4.00
2017-12-16T05:39:20.005Z,4.30
2017-12-16T05:41:47.450Z,5.15
2017-12-16T05:44:14.876Z,9.23
2017-12-16T05:46:42.321Z,5.57
2017-12-16T05:49:09.758Z,4.75
2017-12-16T05:51:37.193Z,3.65
2017-12-16T05:54:04.616Z,3.80
2017-12-16T05:56:32.821Z,4.60
2017-12-16T05:59:00.263Z,5.10
2017-12-16T06:01:27.732Z,4.68
2017-12-16T06:03:55.171Z,4.60
2017-12-16T06:06:22.608Z,4.65
2017-12-16T06:08:50.057Z,4.68
2017-12-16T06:11:17.472Z,4.75
2017-12-16T06:13:44.907Z,4.68
2017-12-16T06:16:12.350Z,4.90
2017-12-16T06:18:39.785Z,5.15
2017-12-16T06:21:07.978Z,4.95
2017-12-16T06:23:35.412Z,5.28
2017-12-16T06:26:02.840Z,4.72
2017-12-16T06:28:30.272Z,5.80
2017-12-16T06:30:57.700Z,5.15
2017-12-16T06:33:25.944Z,5.70
2017-12-16T06:35:53.376Z,5.32
2017-12-16T06:38:20.808Z,5.53
2017-12-16T06:40:48.243Z,4.65
2017-12-16T06:43:15.668Z,4.85
2017-12-16T06:45:43.119Z,5.60
2017-12-16T06:48:10.543Z,5.90
2017-12-16T06:50:37.968Z,6.40
2017-12-16T06:53:05.399Z,6.00
2017-12-16T06:55:33.607Z,5.87
2017-12-16T06:58:01.032Z,6.00
2017-12-16T07:00:28.468Z,5.87
2017-12-16T07:02:55.896Z,5.82
2017-12-16T07:05:24.098Z,6.12
2017-12-16T07:07:51.526Z,6.62
2017-12-16T07:10:18.948Z,6.05
2017-12-16T07:12:46.380Z,6.72
2017-12-16T07:15:14.588Z,5.30
2017-12-16T07:17:42.776Z,5.90
2017-12-16T07:20:10.256Z,5.57
2017-12-16T07:22:37.677Z,7.18
2017-12-16T07:25:05.864Z,7.93
2017-12-16T07:27:33.318Z,6.97
2017-12-16T07:30:00.745Z,6.57
2017-12-16T07:32:28.184Z,5.93
2017-12-16T07:34:55.620Z,5.53
2017-12-16T07:37:23.820Z,6.40
2017-12-16T07:39:51.258Z,7.05
2017-12-16T07:42:18.770Z,6.95
2017-12-16T07:44:46.192Z,6.90
2017-12-16T07:47:14.407Z,7.72
2017-12-16T07:49:41.840Z,7.97
2017-12-16T07:52:09.285Z,8.20
2017-12-16T07:54:36.718Z,8.27
2017-12-16T07:57:04.156Z,8.48
2017-12-16T07:59:31.593Z,8.20
2017-12-16T08:01:59.029Z,9.32
2017-12-16T08:04:26.464Z,9.90
2017-12-16T08:06:54.716Z,9.00
2017-12-16T08:09:22.928Z,9.82
2017-12-16T08:11:50.420Z,8.30
2017-12-16T08:14:18.672Z,8.88
2017-12-16T08:16:46.876Z,9.88
2017-12-16T08:19:14.319Z,12.40
2017-12-16T08:21:41.761Z,11.12
2017-12-16T08:24:09.200Z,10.45
2017-12-16T08:26:36.640Z,10.07
2017-12-16T08:29:04.081Z,10.68
2017-12-16T08:31:31.518Z,9.73
2017-12-16T08:33:59.000Z,8.40
2017-12-16T08:36:26.433Z,10.35
2017-12-16T08:38:53.921Z,7.50
2017-12-16T08:41:21.360Z,7.72
2017-12-16T08:43:49.808Z,8.85
2017-12-16T08:46:17.248Z,8.93
2017-12-16T08:48:44.688Z,9.15
2017-12-16T08:51:12.151Z,9.20
2017-12-16T08:53:39.592Z,9.68
2017-12-16T08:56:07.804Z,11.77
2017-12-16T08:58:35.253Z,14.25
2017-12-16T09:01:02.732Z,10.18
2017-12-16T09:03:30.172Z,9.57
2017-12-16T09:05:57.611Z,8.05
2017-12-16T09:08:25.051Z,8.55
2017-12-16T09:10:52.498Z,9.23
2017-12-16T09:13:19.946Z,9.07
2017-12-16T09:15:47.403Z,9.30
2017-12-16T09:18:15.613Z,10.60
2017-12-16T09:20:43.057Z,10.07
2017-12-16T09:23:11.381Z,8.30
2017-12-16T09:25:38.820Z,10.85
2017-12-16T09:28:07.660Z,12.10
2017-12-16T09:30:35.112Z,11.43
2017-12-16T09:33:02.583Z,9.68
2017-12-16T09:35:30.813Z,11.55
2017-12-16T09:37:58.253Z,11.07
2017-12-16T09:40:25.805Z,10.00
2017-12-16T09:42:53.239Z,9.32
2017-12-16T09:45:20.883Z,9.60
2017-12-16T09:47:48.416Z,12.13
2017-12-16T09:50:15.853Z,9.95
2017-12-16T09:52:43.304Z,12.68
2017-12-16T09:55:10.821Z,12.95
2017-12-16T09:57:38.205Z,12.10
2017-12-16T10:00:05.655Z,11.85
2017-12-16T10:02:33.097Z,9.93
2017-12-16T10:05:00.538Z,9.38
2017-12-16T10:07:28.011Z,10.07
2017-12-16T10:09:55.465Z,7.82
2017-12-16T10:12:22.902Z,8.98
2017-12-16T10:14:50.453Z,8.75
2017-12-16T10:17:18.658Z,9.07
2017-12-16T10:19:46.097Z,8.50
2017-12-16T10:22:13.548Z,12.13
2017-12-16T10:24:41.000Z,11.90
2017-12-16T10:27:08.556Z,9.75
2017-12-16T10:29:36.004Z,9.52
2017-12-16T10:32:04.212Z,9.05
2017-12-16T10:34:31.644Z,9.73
2017-12-16T10:36:59.085Z,8.10
2017-12-16T10:39:26.517Z,9.52
2017-12-16T10:41:53.964Z,8.73
2017-12-16T10:44:21.380Z,9.30
2017-12-16T10:46:49.630Z,8.10
2017-12-16T10:49:17.065Z,9.80
2017-12-16T10:51:44.496Z,9.18
2017-12-16T10:54:12.117Z,9.65
2017-12-16T10:56:39.544Z,8.98
2017-12-16T10:59:06.988Z,8.20
2017-12-16T11:01:34.419Z,8.07
2017-12-16T11:04:01.853Z,8.80
2017-12-16T11:06:29.283Z,8.82
2017-12-16T11:08:57.492Z,9.15
2017-12-16T11:11:24.966Z,10.45
2017-12-16T11:13:52.408Z,9.02
2017-12-16T11:16:19.833Z,8.93
2017-12-16T11:18:47.276Z,9.20
2017-12-16T11:21:14.704Z,9.60
2017-12-16T11:23:42.185Z,8.70
2017-12-16T11:26:10.423Z,9.48
2017-12-16T11:28:37.864Z,9.15
2017-12-16T11:31:05.308Z,9.77
2017-12-16T11:33:32.841Z,9.75
2017-12-16T11:36:00.290Z,9.15
2017-12-16T11:38:27.757Z,11.52
2017-12-16T11:40:55.191Z,9.10
2017-12-16T11:43:22.624Z,9.20
2017-12-16T11:45:50.197Z,10.23
2017-12-16T11:48:17.724Z,12.73
2017-12-16T11:50:45.214Z,10.05
2017-12-16T11:53:12.653Z,9.70
2017-12-16T11:55:40.164Z,9.57
2017-12-16T11:58:07.702Z,10.98
2017-12-16T12:00:35.180Z,10.60
2017-12-16T12:03:02.649Z,10.43
2017-12-16T12:05:30.506Z,9.25
2017-12-16T12:07:57.938Z,11.50
2017-12-16T12:10:25.364Z,9.70
2017-12-16T12:12:52.817Z,10.25
2017-12-16T12:15:20.261Z,10.07
2017-12-16T12:17:47.769Z,9.55
2017-12-16T12:20:15.330Z,10.02
2017-12-16T12:22:43.536Z,10.65
2017-12-16T12:25:10.989Z,10.80
2017-12-16T12:27:38.432Z,11.30
2017-12-16T12:30:05.872Z,13.65
2017-12-16T12:32:33.314Z,11.32
2017-12-16T12:35:00.753Z,9.30
2017-12-16T12:37:28.205Z,9.15
2017-12-16T12:39:55.641Z,9.57
2017-12-16T12:42:23.134Z,9.00
2017-12-16T12:44:51.345Z,8.63
2017-12-16T12:47:18.898Z,9.85
2017-12-16T12:49:46.350Z,9.45
2017-12-16T12:52:13.775Z,9.65
2017-12-16T12:54:41.224Z,9.13
2017-12-16T12:57:08.660Z,10.80
2017-12-16T12:59:36.096Z,10.13
2017-12-16T13:02:03.540Z,10.40
2017-12-16T13:04:31.020Z,9.80
2017-12-16T13:06:59.275Z,9.93
2017-12-16T13:09:27.524Z,9.65
2017-12-16T13:11:54.979Z,9.82
2017-12-16T13:14:22.469Z,9.30
2017-12-16T13:16:49.886Z,9.57
2017-12-16T13:19:17.343Z,9.85
2017-12-16T13:21:44.768Z,9.80
2017-12-16T13:26:52.304Z,10.50
2017-12-16T13:29:19.752Z,11.25
2017-12-16T13:31:47.184Z,10.32
2017-12-16T13:34:14.748Z,10.70
2017-12-16T13:36:42.296Z,10.57
2017-12-16T13:39:09.745Z,14.65
2017-12-16T13:41:38.052Z,11.40
2017-12-16T13:44:05.639Z,9.45
2017-12-16T13:46:33.184Z,10.50
2017-12-16T13:49:00.626Z,8.55
2017-12-16T13:51:28.176Z,9.80
2017-12-16T13:53:55.693Z,9.18
2017-12-16T13:56:23.233Z,9.35
2017-12-16T13:58:50.679Z,10.38
2017-12-16T14:01:18.124Z,11.88
2017-12-16T14:03:45.592Z,11.23
2017-12-16T14:06:13.106Z,21.77
2017-12-16T14:08:40.543Z,27.73
2017-12-16T14:11:07.973Z,14.77
2017-12-16T14:13:35.418Z,12.02
2017-12-16T14:16:02.853Z,12.15
2017-12-16T14:18:30.422Z,11.50
2017-12-16T14:20:57.853Z,13.05
2017-12-16T14:23:25.345Z,10.65
2017-12-16T14:25:52.790Z,11.82
2017-12-16T14:28:20.228Z,10.70
2017-12-16T14:30:47.671Z,11.88
2017-12-16T14:33:15.257Z,11.20
2017-12-16T14:35:42.687Z,12.40
2017-12-16T14:38:10.892Z,9.95
2017-12-16T14:40:38.328Z,11.07
2017-12-16T14:43:05.786Z,10.95
2017-12-16T14:45:33.272Z,12.55
2017-12-16T14:48:00.886Z,12.30
2017-12-16T14:50:28.277Z,9.95
2017-12-16T14:52:55.779Z,10.73
2017-12-16T14:55:23.220Z,11.70
2017-12-16T14:57:50.671Z,11.38
2017-12-16T15:00:18.136Z,12.32
2017-12-16T15:02:46.340Z,11.63
2017-12-16T15:05:13.813Z,13.52
2017-12-16T15:07:42.783Z,12.48
2017-12-16T15:10:10.353Z,12.05
2017-12-16T15:12:37.842Z,12.45
2017-12-16T15:15:05.318Z,9.90
2017-12-16T15:17:32.764Z,10.52
2017-12-16T15:20:00.380Z,10.68
2017-12-16T15:22:27.894Z,11.02
2017-12-16T15:24:56.111Z,11.50
2017-12-16T15:27:23.549Z,10.18
2017-12-16T15:29:51.008Z,11.38
2017-12-16T15:32:18.552Z,10.20
2017-12-16T15:34:45.952Z,10.55
2017-12-16T15:37:13.434Z,9.75
2017-12-16T15:39:40.852Z,12.15
2017-12-16T15:42:08.292Z,11.35
2017-12-16T15:44:35.728Z,12.35
2017-12-16T15:47:03.168Z,11.48
2017-12-16T15:49:30.653Z,12.50
2017-12-16T15:51:58.187Z,12.63
2017-12-16T15:54:26.636Z,11.82
2017-12-16T15:56:54.060Z,11.85
2017-12-16T15:59:21.508Z,11.77
2017-12-16T16:01:48.980Z,10.50
2017-12-16T16:04:16.420Z,13.23
2017-12-16T16:06:43.902Z,12.43
2017-12-16T16:09:12.095Z,22.67
2017-12-16T16:11:39.530Z,14.18
2017-12-16T16:14:08.021Z,13.52
2017-12-16T16:16:35.448Z,12.93
2017-12-16T16:19:02.892Z,13.48
2017-12-16T16:21:30.333Z,12.55
2017-12-16T16:23:57.785Z,13.35
2017-12-16T16:26:25.224Z,14.27
2017-12-16T16:28:52.800Z,13.85
2017-12-16T16:31:20.228Z,14.60
2017-12-16T16:33:47.680Z,13.35
2017-12-16T16:36:15.120Z,14.32
2017-12-16T16:38:42.659Z,14.30
2017-12-16T16:41:10.271Z,13.48
2017-12-16T16:43:37.740Z,15.65
2017-12-16T16:46:05.206Z,13.82
2017-12-16T16:48:32.746Z,15.10
2017-12-16T16:51:00.178Z,14.38
2017-12-16T16:53:27.662Z,14.77
2017-12-16T16:55:55.894Z,16.35
2017-12-16T16:58:23.394Z,17.65
2017-12-16T17:00:50.858Z,15.40
2017-12-16T17:03:18.348Z,16.02
2017-12-16T17:05:45.775Z,16.95
2017-12-16T17:08:13.972Z,18.30
2017-12-16T17:10:41.453Z,15.98
2017-12-16T17:13:08.940Z,16.33
2017-12-16T17:15:37.160Z,16.83
2017-12-16T17:18:04.633Z,17.15
2017-12-16T17:20:32.105Z,18.05
2017-12-16T17:22:59.524Z,18.40
2017-12-16T17:25:27.753Z,16.62
2017-12-16T17:27:55.208Z,16.92
2017-12-16T17:30:22.728Z,18.37
2017-12-16T17:32:50.211Z,19.20
2017-12-16T17:35:17.786Z,18.30
2017-12-16T17:37:45.260Z,19.25
2017-12-16T17:40:12.680Z,18.10
2017-12-16T17:42:52.444Z,19.15
2017-12-16T17:45:19.920Z,20.02
2017-12-16T17:47:47.451Z,20.30
2017-12-16T17:50:14.879Z,21.25
2017-12-16T17:52:42.429Z,21.80
2017-12-16T17:55:09.865Z,20.35
2017-12-16T17:57:37.364Z,18.95
2017-12-16T18:00:04.839Z,21.37
2017-12-16T18:02:32.340Z,19.73
2017-12-16T18:05:00.523Z,18.95
2017-12-16T18:07:28.020Z,20.62
2017-12-16T18:09:55.512Z,21.55
2017-12-16T18:12:23.908Z,23.15
2017-12-16T18:14:51.392Z,23.40
2017-12-16T18:17:19.629Z,21.02
2017-12-16T18:19:47.061Z,21.98
2017-12-16T18:22:14.540Z,21.80
2017-12-16T18:24:42.737Z,19.90
2017-12-16T18:27:10.254Z,21.25
2017-12-16T18:29:37.700Z,22.58
2017-12-16T18:32:05.186Z,22.95
2017-12-16T18:34:32.674Z,20.35
2017-12-16T18:37:00.912Z,22.92
2017-12-16T18:39:28.390Z,22.75
2017-12-16T18:41:56.654Z,21.90
2017-12-16T18:44:24.108Z,26.05
2017-12-16T18:46:51.639Z,23.10
2017-12-16T18:49:19.151Z,23.08
2017-12-16T18:51:46.739Z,20.95
2017-12-16T18:54:14.219Z,21.50
2017-12-16T18:56:41.712Z,21.92
2017-12-16T18:59:09.180Z,22.25
2017-12-16T19:01:36.659Z,19.17
2017-12-16T19:04:04.148Z,20.45
2017-12-16T19:06:31.691Z,19.20
2017-12-16T19:08:59.244Z,23.62
2017-12-16T19:11:26.696Z,22.80
2017-12-16T19:13:54.200Z,17.98
2017-12-16T19:16:22.451Z,19.17
2017-12-16T19:18:50.037Z,20.30
2017-12-16T19:21:17.603Z,21.12
2017-12-16T19:23:45.069Z,20.65
2017-12-16T19:26:12.558Z,22.08
2017-12-16T19:28:40.795Z,21.25
2017-12-16T19:31:08.267Z,21.35
2017-12-16T19:33:35.752Z,20.20
2017-12-16T19:36:03.995Z,19.17
2017-12-16T19:38:31.462Z,19.27
2017-12-16T19:40:59.093Z,22.48
2017-12-16T19:43:26.570Z,18.90
2017-12-16T19:45:54.155Z,20.52
2017-12-16T19:48:21.635Z,18.17
2017-12-16T19:50:49.114Z,18.10
2017-12-16T19:53:16.643Z,20.30
2017-12-16T19:55:44.060Z,20.25
2017-12-16T19:58:11.499Z,18.00
2017-12-16T20:00:38.996Z,18.52
2017-12-16T20:03:07.241Z,19.17
2017-12-16T20:05:34.708Z,18.08
2017-12-16T20:08:02.264Z,17.20
2017-12-16T20:10:29.739Z,20.65
2017-12-16T20:12:57.212Z,18.73
2017-12-16T20:15:24.796Z,18.25
2017-12-16T20:17:52.340Z,20.55
2017-12-16T20:20:19.868Z,18.70
2017-12-16T20:22:47.333Z,20.00
2017-12-16T20:25:14.761Z,18.67
2017-12-16T20:27:42.248Z,18.52
2017-12-16T20:30:09.727Z,20.15
2017-12-16T20:32:37.297Z,19.67
2017-12-16T20:35:05.548Z,19.83
2017-12-16T20:37:33.824Z,19.70
2017-12-16T20:40:01.300Z,18.67
2017-12-16T20:42:29.762Z,19.95
2017-12-16T20:44:57.288Z,20.48
2017-12-16T20:47:24.781Z,20.95
2017-12-16T20:49:53.087Z,19.55
2017-12-16T20:52:20.571Z,21.25
2017-12-16T20:54:48.044Z,17.52
2017-12-16T20:57:15.533Z,17.73
2017-12-16T20:59:43.201Z,17.12
2017-12-16T21:02:10.820Z,17.67
2017-12-16T21:04:38.320Z,23.08
2017-12-16T21:07:05.796Z,16.58
2017-12-16T21:09:33.370Z,19.27
2017-12-16T21:12:00.852Z,17.58
2017-12-16T21:14:28.439Z,16.20
2017-12-16T21:16:55.916Z,15.18
2017-12-16T21:19:23.412Z,18.65
2017-12-16T21:21:51.679Z,17.67
2017-12-16T21:24:19.227Z,16.55
2017-12-16T21:26:46.706Z,16.35
2017-12-16T21:29:14.231Z,16.40
2017-12-16T21:31:41.755Z,16.33
2017-12-16T21:34:11.016Z,17.65
2017-12-16T21:36:38.495Z,16.02
2017-12-16T21:39:06.061Z,15.93
2017-12-16T21:41:33.545Z,16.70
2017-12-16T21:44:01.100Z,16.40
2017-12-16T21:46:29.374Z,16.92
2017-12-16T21:48:57.651Z,14.98
2017-12-16T21:51:25.196Z,15.65
2017-12-16T21:53:52.717Z,20.23
2017-12-16T21:56:21.004Z,15.13
2017-12-16T21:58:48.474Z,15.65
2017-12-16T22:01:15.963Z,15.35
2017-12-16T22:03:44.204Z,17.12
2017-12-16T22:06:11.682Z,16.62
2017-12-16T22:08:39.932Z,16.87
2017-12-16T22:11:07.436Z,15.88
2017-12-16T22:13:34.940Z,17.52
2017-12-16T22:16:02.421Z,16.33
2017-12-16T22:18:29.935Z,17.95
2017-12-16T22:20:57.408Z,15.43
2017-12-16T22:23:24.888Z,15.52
2017-12-16T22:25:52.359Z,16.05
2017-12-16T22:28:19.850Z,18.45
2017-12-16T22:30:47.344Z,17.37
2017-12-16T22:33:14.885Z,16.52
2017-12-16T22:35:43.124Z,18.45
2017-12-16T22:38:10.635Z,15.77
2017-12-16T22:40:38.098Z,14.75
2017-12-16T22:43:05.576Z,15.05
2017-12-16T22:45:33.850Z,14.95
2017-12-16T22:48:01.323Z,15.30
2017-12-16T22:50:28.811Z,17.12
2017-12-16T22:52:57.090Z,15.45
2017-12-16T22:55:24.644Z,15.50
2017-12-16T22:57:52.180Z,15.32
2017-12-16T23:00:19.660Z,17.35
2017-12-16T23:02:47.137Z,16.55
2017-12-16T23:05:14.647Z,15.23
2017-12-16T23:07:42.154Z,15.10
2017-12-16T23:10:10.121Z,16.15
2017-12-16T23:12:37.610Z,16.35
2017-12-16T23:15:05.852Z,15.02
2017-12-16T23:17:33.418Z,14.70
2017-12-16T23:20:00.934Z,14.40
2017-12-16T23:22:28.434Z,18.35
2017-12-16T23:24:56.662Z,15.60
2017-12-16T23:27:24.138Z,16.58
2017-12-16T23:29:52.369Z,14.27
2017-12-16T23:32:19.851Z,15.70
2017-12-16T23:34:48.082Z,16.15
2017-12-16T23:37:15.617Z,15.63
2017-12-16T23:39:43.078Z,17.35
2017-12-16T23:42:10.542Z,16.00
2017-12-16T23:44:38.778Z,16.50
2017-12-16T23:47:06.240Z,16.70
2017-12-16T23:49:34.478Z,16.95
2017-12-16T23:52:01.942Z,17.67
2017-12-16T23:54:30.141Z,17.15
2017-12-16T23:56:57.617Z,17.55
2017-12-16T23:59:25.919Z,17.87
